sensor_id;sensor_type;location;lat;lon;timestamp;P1;durP1;ratioP1;P2;durP2;ratioP2
55835;SDS011;66908;50.988;4.780;2023-02-19T00:01:36;9.20;;;5.97;;
55835;SDS011;66908;50.988;4.780;2023-02-19T00:04:05;10.43;;;5.60;;
55835;SDS011;66908;50.988;4.780;2023-02-19T00:06:34;8.35;;;5.65;;
55835;SDS011;66908;50.988;4.780;2023-02-19T00:09:00;8.38;;;5.88;;
55835;SDS011;66908;50.988;4.780;2023-02-19T00:11:27;9.35;;;5.88;;
55835;SDS011;66908;50.988;4.780;2023-02-19T00:13:55;7.60;;;5.32;;
55835;SDS011;66908;50.988;4.780;2023-02-19T00:16:27;9.75;;;6.30;;
55835;SDS011;66908;50.988;4.780;2023-02-19T00:18:55;11.10;;;5.93;;
55835;SDS011;66908;50.988;4.780;2023-02-19T00:21:22;9.13;;;6.82;;
55835;SDS011;66908;50.988;4.780;2023-02-19T00:23:53;10.55;;;6.50;;
55835;SDS011;66908;50.988;4.780;2023-02-19T00:26:21;12.13;;;7.10;;
55835;SDS011;66908;50.988;4.780;2023-02-19T00:28:48;12.45;;;7.72;;
55835;SDS011;66908;50.988;4.780;2023-02-19T00:33:41;12.77;;;7.63;;
55835;SDS011;66908;50.988;4.780;2023-02-19T00:36:07;13.45;;;8.05;;
55835;SDS011;66908;50.988;4.780;2023-02-19T00:38:36;14.23;;;8.80;;
55835;SDS011;66908;50.988;4.780;2023-02-19T00:41:03;15.38;;;8.63;;
55835;SDS011;66908;50.988;4.780;2023-02-19T00:43:51;18.33;;;9.27;;
55835;SDS011;66908;50.988;4.780;2023-02-19T00:46:29;15.88;;;8.57;;
55835;SDS011;66908;50.988;4.780;2023-02-19T00:49:00;19.55;;;10.10;;
55835;SDS011;66908;50.988;4.780;2023-02-19T00:51:28;15.32;;;8.75;;
55835;SDS011;66908;50.988;4.780;2023-02-19T00:53:55;17.77;;;8.82;;
55835;SDS011;66908;50.988;4.780;2023-02-19T00:56:22;16.02;;;8.93;;
55835;SDS011;66908;50.988;4.780;2023-02-19T00:58:47;14.27;;;8.85;;
55835;SDS011;66908;50.988;4.780;2023-02-19T01:01:14;13.23;;;9.10;;
55835;SDS011;66908;50.988;4.780;2023-02-19T01:03:40;12.35;;;8.27;;
55835;SDS011;66908;50.988;4.780;2023-02-19T01:06:07;15.30;;;8.48;;
55835;SDS011;66908;50.988;4.780;2023-02-19T01:08:34;13.48;;;8.75;;
55835;SDS011;66908;50.988;4.780;2023-02-19T01:11:01;14.45;;;8.45;;
55835;SDS011;66908;50.988;4.780;2023-02-19T01:13:28;14.55;;;8.65;;
55835;SDS011;66908;50.988;4.780;2023-02-19T01:16:05;11.30;;;7.93;;
55835;SDS011;66908;50.988;4.780;2023-02-19T01:18:42;15.02;;;7.70;;
55835;SDS011;66908;50.988;4.780;2023-02-19T01:21:12;11.33;;;7.83;;
55835;SDS011;66908;50.988;4.780;2023-02-19T01:23:40;11.25;;;7.20;;
55835;SDS011;66908;50.988;4.780;2023-02-19T01:26:06;9.63;;;6.65;;
55835;SDS011;66908;50.988;4.780;2023-02-19T01:28:35;15.70;;;7.88;;
55835;SDS011;66908;50.988;4.780;2023-02-19T01:31:02;17.50;;;8.45;;
55835;SDS011;66908;50.988;4.780;2023-02-19T01:33:29;11.63;;;6.68;;
55835;SDS011;66908;50.988;4.780;2023-02-19T01:35:55;10.70;;;7.00;;
55835;SDS011;66908;50.988;4.780;2023-02-19T01:38:21;10.60;;;6.80;;
55835;SDS011;66908;50.988;4.780;2023-02-19T01:40:57;8.63;;;6.43;;
55835;SDS011;66908;50.988;4.780;2023-02-19T01:43:24;14.98;;;6.32;;
55835;SDS011;66908;50.988;4.780;2023-02-19T01:45:50;15.75;;;6.95;;
55835;SDS011;66908;50.988;4.780;2023-02-19T01:48:20;12.95;;;7.82;;
55835;SDS011;66908;50.988;4.780;2023-02-19T01:51:01;19.23;;;6.03;;
55835;SDS011;66908;50.988;4.780;2023-02-19T01:53:38;12.32;;;6.65;;
55835;SDS011;66908;50.988;4.780;2023-02-19T01:56:08;11.75;;;6.53;;
55835;SDS011;66908;50.988;4.780;2023-02-19T01:58:35;9.95;;;5.10;;
55835;SDS011;66908;50.988;4.780;2023-02-19T02:01:03;15.15;;;6.88;;
55835;SDS011;66908;50.988;4.780;2023-02-19T02:03:31;13.98;;;6.03;;
55835;SDS011;66908;50.988;4.780;2023-02-19T02:06:01;10.63;;;6.38;;
55835;SDS011;66908;50.988;4.780;2023-02-19T02:08:48;12.73;;;6.22;;
55835;SDS011;66908;50.988;4.780;2023-02-19T02:11:35;7.13;;;5.38;;
55835;SDS011;66908;50.988;4.780;2023-02-19T02:14:06;11.50;;;5.88;;
55835;SDS011;66908;50.988;4.780;2023-02-19T02:19:55;10.50;;;4.85;;
55835;SDS011;66908;50.988;4.780;2023-02-19T02:22:52;10.65;;;5.05;;
55835;SDS011;66908;50.988;4.780;2023-02-19T02:31:49;6.60;;;4.57;;
55835;SDS011;66908;50.988;4.780;2023-02-19T02:34:26;4.82;;;3.55;;
55835;SDS011;66908;50.988;4.780;2023-02-19T02:36:59;9.15;;;4.45;;
55835;SDS011;66908;50.988;4.780;2023-02-19T02:39:27;10.07;;;4.72;;
55835;SDS011;66908;50.988;4.780;2023-02-19T02:41:57;6.75;;;3.92;;
55835;SDS011;66908;50.988;4.780;2023-02-19T02:44:42;10.57;;;4.30;;
55835;SDS011;66908;50.988;4.780;2023-02-19T02:50:18;9.57;;;4.38;;
55835;SDS011;66908;50.988;4.780;2023-02-19T02:52:49;9.00;;;3.80;;
55835;SDS011;66908;50.988;4.780;2023-02-19T02:55:39;8.23;;;3.88;;
55835;SDS011;66908;50.988;4.780;2023-02-19T02:58:08;7.95;;;4.13;;
55835;SDS011;66908;50.988;4.780;2023-02-19T03:00:35;6.85;;;3.83;;
55835;SDS011;66908;50.988;4.780;2023-02-19T03:03:22;5.13;;;3.80;;
55835;SDS011;66908;50.988;4.780;2023-02-19T03:05:51;6.60;;;3.80;;
55835;SDS011;66908;50.988;4.780;2023-02-19T03:11:10;8.68;;;4.13;;
55835;SDS011;66908;50.988;4.780;2023-02-19T03:13:57;9.40;;;3.90;;
55835;SDS011;66908;50.988;4.780;2023-02-19T03:16:50;9.73;;;3.72;;
55835;SDS011;66908;50.988;4.780;2023-02-19T03:19:39;10.93;;;3.78;;
55835;SDS011;66908;50.988;4.780;2023-02-19T03:22:11;10.00;;;3.58;;
55835;SDS011;66908;50.988;4.780;2023-02-19T03:24:42;8.85;;;3.85;;
55835;SDS011;66908;50.988;4.780;2023-02-19T03:27:31;8.35;;;3.28;;
55835;SDS011;66908;50.988;4.780;2023-02-19T03:30:21;7.95;;;3.53;;
55835;SDS011;66908;50.988;4.780;2023-02-19T03:35:20;14.77;;;4.05;;
55835;SDS011;66908;50.988;4.780;2023-02-19T03:37:59;7.60;;;3.33;;
55835;SDS011;66908;50.988;4.780;2023-02-19T03:40:43;12.57;;;4.35;;
55835;SDS011;66908;50.988;4.780;2023-02-19T03:43:20;8.23;;;3.50;;
55835;SDS011;66908;50.988;4.780;2023-02-19T03:46:10;9.10;;;3.70;;
55835;SDS011;66908;50.988;4.780;2023-02-19T03:48:50;9.65;;;3.90;;
55835;SDS011;66908;50.988;4.780;2023-02-19T03:56:48;10.18;;;3.83;;
55835;SDS011;66908;50.988;4.780;2023-02-19T04:02:18;8.75;;;3.53;;
55835;SDS011;66908;50.988;4.780;2023-02-19T04:04:53;7.82;;;3.35;;
55835;SDS011;66908;50.988;4.780;2023-02-19T04:07:38;9.65;;;3.58;;
55835;SDS011;66908;50.988;4.780;2023-02-19T04:10:08;7.22;;;3.85;;
55835;SDS011;66908;50.988;4.780;2023-02-19T04:12:36;12.40;;;3.67;;
55835;SDS011;66908;50.988;4.780;2023-02-19T04:15:07;10.35;;;3.35;;
55835;SDS011;66908;50.988;4.780;2023-02-19T04:17:37;7.85;;;3.30;;
55835;SDS011;66908;50.988;4.780;2023-02-19T04:20:14;13.03;;;3.53;;
55835;SDS011;66908;50.988;4.780;2023-02-19T04:22:41;10.90;;;3.83;;
55835;SDS011;66908;50.988;4.780;2023-02-19T04:25:07;11.95;;;4.07;;
55835;SDS011;66908;50.988;4.780;2023-02-19T04:27:37;10.30;;;3.97;;
55835;SDS011;66908;50.988;4.780;2023-02-19T04:30:04;9.15;;;3.40;;
55835;SDS011;66908;50.988;4.780;2023-02-19T04:32:32;15.77;;;4.00;;
55835;SDS011;66908;50.988;4.780;2023-02-19T04:34:58;9.52;;;3.63;;
55835;SDS011;66908;50.988;4.780;2023-02-19T04:37:24;7.32;;;3.55;;
55835;SDS011;66908;50.988;4.780;2023-02-19T04:39:49;15.88;;;3.83;;
55835;SDS011;66908;50.988;4.780;2023-02-19T04:42:15;12.52;;;4.75;;
55835;SDS011;66908;50.988;4.780;2023-02-19T04:44:41;7.72;;;3.25;;
55835;SDS011;66908;50.988;4.780;2023-02-19T04:47:07;11.45;;;3.78;;
55835;SDS011;66908;50.988;4.780;2023-02-19T04:49:33;13.85;;;3.85;;
55835;SDS011;66908;50.988;4.780;2023-02-19T04:51:59;7.35;;;3.30;;
55835;SDS011;66908;50.988;4.780;2023-02-19T04:54:25;6.95;;;2.88;;
55835;SDS011;66908;50.988;4.780;2023-02-19T04:56:51;10.05;;;3.88;;
55835;SDS011;66908;50.988;4.780;2023-02-19T04:59:17;11.90;;;3.50;;
55835;SDS011;66908;50.988;4.780;2023-02-19T05:01:42;9.27;;;4.45;;
55835;SDS011;66908;50.988;4.780;2023-02-19T05:04:08;11.60;;;3.88;;
55835;SDS011;66908;50.988;4.780;2023-02-19T05:06:34;14.68;;;4.50;;
55835;SDS011;66908;50.988;4.780;2023-02-19T05:09:00;9.40;;;3.67;;
55835;SDS011;66908;50.988;4.780;2023-02-19T05:11:26;13.25;;;4.03;;
55835;SDS011;66908;50.988;4.780;2023-02-19T05:13:53;10.20;;;3.67;;
55835;SDS011;66908;50.988;4.780;2023-02-19T05:18:45;13.93;;;3.72;;
55835;SDS011;66908;50.988;4.780;2023-02-19T05:21:11;12.48;;;4.13;;
55835;SDS011;66908;50.988;4.780;2023-02-19T05:23:38;14.37;;;3.67;;
55835;SDS011;66908;50.988;4.780;2023-02-19T05:26:05;14.45;;;4.03;;
55835;SDS011;66908;50.988;4.780;2023-02-19T05:28:32;15.68;;;3.90;;
55835;SDS011;66908;50.988;4.780;2023-02-19T05:31:02;12.65;;;4.32;;
55835;SDS011;66908;50.988;4.780;2023-02-19T05:33:31;9.85;;;3.50;;
55835;SDS011;66908;50.988;4.780;2023-02-19T05:35:57;12.45;;;3.80;;
55835;SDS011;66908;50.988;4.780;2023-02-19T05:38:24;9.93;;;3.90;;
55835;SDS011;66908;50.988;4.780;2023-02-19T05:40:50;9.02;;;3.95;;
55835;SDS011;66908;50.988;4.780;2023-02-19T05:43:16;15.85;;;4.53;;
55835;SDS011;66908;50.988;4.780;2023-02-19T05:45:42;12.50;;;4.32;;
55835;SDS011;66908;50.988;4.780;2023-02-19T05:48:09;13.05;;;3.97;;
55835;SDS011;66908;50.988;4.780;2023-02-19T05:50:35;12.25;;;3.78;;
55835;SDS011;66908;50.988;4.780;2023-02-19T05:53:02;10.18;;;3.53;;
55835;SDS011;66908;50.988;4.780;2023-02-19T05:55:28;13.07;;;3.90;;
55835;SDS011;66908;50.988;4.780;2023-02-19T05:57:57;15.50;;;4.30;;
55835;SDS011;66908;50.988;4.780;2023-02-19T06:00:23;13.20;;;3.55;;
55835;SDS011;66908;50.988;4.780;2023-02-19T06:02:51;11.25;;;4.18;;
55835;SDS011;66908;50.988;4.780;2023-02-19T06:05:18;13.68;;;3.75;;
55835;SDS011;66908;50.988;4.780;2023-02-19T06:07:44;14.93;;;3.95;;
55835;SDS011;66908;50.988;4.780;2023-02-19T06:10:10;13.27;;;3.72;;
55835;SDS011;66908;50.988;4.780;2023-02-19T06:12:36;12.77;;;3.47;;
55835;SDS011;66908;50.988;4.780;2023-02-19T06:15:04;7.65;;;4.03;;
55835;SDS011;66908;50.988;4.780;2023-02-19T06:17:31;11.57;;;3.95;;
55835;SDS011;66908;50.988;4.780;2023-02-19T06:19:57;9.80;;;4.32;;
55835;SDS011;66908;50.988;4.780;2023-02-19T06:22:23;11.82;;;3.95;;
55835;SDS011;66908;50.988;4.780;2023-02-19T06:24:49;14.38;;;3.85;;
55835;SDS011;66908;50.988;4.780;2023-02-19T06:27:15;11.60;;;3.88;;
55835;SDS011;66908;50.988;4.780;2023-02-19T06:29:41;12.07;;;3.60;;
55835;SDS011;66908;50.988;4.780;2023-02-19T06:32:07;12.55;;;4.72;;
55835;SDS011;66908;50.988;4.780;2023-02-19T06:34:33;7.43;;;3.53;;
55835;SDS011;66908;50.988;4.780;2023-02-19T06:36:59;10.43;;;3.53;;
55835;SDS011;66908;50.988;4.780;2023-02-19T06:39:26;13.88;;;4.32;;
55835;SDS011;66908;50.988;4.780;2023-02-19T06:41:55;9.30;;;3.33;;
55835;SDS011;66908;50.988;4.780;2023-02-19T06:44:22;9.75;;;3.92;;
55835;SDS011;66908;50.988;4.780;2023-02-19T06:46:48;14.68;;;3.90;;
55835;SDS011;66908;50.988;4.780;2023-02-19T06:49:14;7.85;;;3.47;;
55835;SDS011;66908;50.988;4.780;2023-02-19T06:51:40;9.63;;;3.95;;
55835;SDS011;66908;50.988;4.780;2023-02-19T06:54:06;10.98;;;4.68;;
55835;SDS011;66908;50.988;4.780;2023-02-19T06:56:36;12.70;;;4.32;;
55835;SDS011;66908;50.988;4.780;2023-02-19T06:59:07;7.13;;;3.58;;
55835;SDS011;66908;50.988;4.780;2023-02-19T07:01:35;12.90;;;3.63;;
55835;SDS011;66908;50.988;4.780;2023-02-19T07:04:01;11.27;;;4.47;;
55835;SDS011;66908;50.988;4.780;2023-02-19T07:06:28;10.18;;;3.60;;
55835;SDS011;66908;50.988;4.780;2023-02-19T07:08:56;12.20;;;4.07;;
55835;SDS011;66908;50.988;4.780;2023-02-19T07:13:55;8.05;;;3.78;;
55835;SDS011;66908;50.988;4.780;2023-02-19T07:16:22;7.97;;;3.17;;
55835;SDS011;66908;50.988;4.780;2023-02-19T07:18:48;10.68;;;4.07;;
55835;SDS011;66908;50.988;4.780;2023-02-19T07:21:14;11.73;;;4.20;;
55835;SDS011;66908;50.988;4.780;2023-02-19T07:23:41;10.52;;;3.60;;
55835;SDS011;66908;50.988;4.780;2023-02-19T07:26:11;13.80;;;3.03;;
55835;SDS011;66908;50.988;4.780;2023-02-19T07:28:43;12.60;;;3.58;;
55835;SDS011;66908;50.988;4.780;2023-02-19T07:31:10;8.63;;;3.65;;
55835;SDS011;66908;50.988;4.780;2023-02-19T07:33:36;16.67;;;4.53;;
55835;SDS011;66908;50.988;4.780;2023-02-19T07:36:05;10.23;;;3.80;;
55835;SDS011;66908;50.988;4.780;2023-02-19T07:38:31;13.25;;;3.97;;
55835;SDS011;66908;50.988;4.780;2023-02-19T07:40:58;8.25;;;3.35;;
55835;SDS011;66908;50.988;4.780;2023-02-19T07:43:27;11.68;;;3.45;;
55835;SDS011;66908;50.988;4.780;2023-02-19T07:45:54;13.68;;;4.72;;
55835;SDS011;66908;50.988;4.780;2023-02-19T07:48:20;10.75;;;3.78;;
55835;SDS011;66908;50.988;4.780;2023-02-19T07:50:53;9.52;;;3.45;;
55835;SDS011;66908;50.988;4.780;2023-02-19T07:53:20;9.05;;;3.25;;
55835;SDS011;66908;50.988;4.780;2023-02-19T07:55:47;9.48;;;3.53;;
55835;SDS011;66908;50.988;4.780;2023-02-19T07:58:13;13.50;;;4.50;;
55835;SDS011;66908;50.988;4.780;2023-02-19T08:00:39;7.20;;;3.53;;
55835;SDS011;66908;50.988;4.780;2023-02-19T08:03:05;13.18;;;3.78;;
55835;SDS011;66908;50.988;4.780;2023-02-19T08:05:32;12.60;;;4.10;;
55835;SDS011;66908;50.988;4.780;2023-02-19T08:08:01;10.73;;;3.83;;
55835;SDS011;66908;50.988;4.780;2023-02-19T08:10:30;8.20;;;3.60;;
55835;SDS011;66908;50.988;4.780;2023-02-19T08:13:15;8.68;;;3.33;;
55835;SDS011;66908;50.988;4.780;2023-02-19T08:18:14;7.75;;;3.88;;
55835;SDS011;66908;50.988;4.780;2023-02-19T08:20:42;7.95;;;3.85;;
55835;SDS011;66908;50.988;4.780;2023-02-19T08:23:08;12.60;;;3.72;;
55835;SDS011;66908;50.988;4.780;2023-02-19T08:25:35;9.02;;;3.72;;
55835;SDS011;66908;50.988;4.780;2023-02-19T08:28:01;13.60;;;4.03;;
55835;SDS011;66908;50.988;4.780;2023-02-19T08:30:28;8.82;;;4.07;;
55835;SDS011;66908;50.988;4.780;2023-02-19T08:32:56;7.88;;;3.30;;
55835;SDS011;66908;50.988;4.780;2023-02-19T08:35:23;14.82;;;3.70;;
55835;SDS011;66908;50.988;4.780;2023-02-19T08:37:50;9.13;;;4.00;;
55835;SDS011;66908;50.988;4.780;2023-02-19T08:40:18;7.20;;;3.40;;
55835;SDS011;66908;50.988;4.780;2023-02-19T08:42:44;10.95;;;3.45;;
55835;SDS011;66908;50.988;4.780;2023-02-19T08:45:10;13.35;;;4.22;;
55835;SDS011;66908;50.988;4.780;2023-02-19T08:47:36;10.60;;;3.30;;
55835;SDS011;66908;50.988;4.780;2023-02-19T08:50:03;11.80;;;4.30;;
55835;SDS011;66908;50.988;4.780;2023-02-19T08:54:56;8.07;;;3.25;;
55835;SDS011;66908;50.988;4.780;2023-02-19T08:57:23;14.00;;;4.35;;
55835;SDS011;66908;50.988;4.780;2023-02-19T08:59:49;13.38;;;3.80;;
55835;SDS011;66908;50.988;4.780;2023-02-19T09:02:15;6.80;;;3.60;;
55835;SDS011;66908;50.988;4.780;2023-02-19T09:04:41;10.63;;;3.72;;
55835;SDS011;66908;50.988;4.780;2023-02-19T09:07:07;8.27;;;3.67;;
55835;SDS011;66908;50.988;4.780;2023-02-19T09:09:35;11.10;;;4.70;;
55835;SDS011;66908;50.988;4.780;2023-02-19T09:12:05;11.60;;;4.30;;
55835;SDS011;66908;50.988;4.780;2023-02-19T09:14:35;10.27;;;3.72;;
55835;SDS011;66908;50.988;4.780;2023-02-19T09:17:02;8.95;;;3.55;;
55835;SDS011;66908;50.988;4.780;2023-02-19T09:19:29;11.25;;;3.90;;
55835;SDS011;66908;50.988;4.780;2023-02-19T09:21:55;7.70;;;4.03;;
55835;SDS011;66908;50.988;4.780;2023-02-19T09:24:21;15.02;;;4.45;;
55835;SDS011;66908;50.988;4.780;2023-02-19T09:26:48;13.15;;;4.32;;
55835;SDS011;66908;50.988;4.780;2023-02-19T09:29:15;6.90;;;3.95;;
55835;SDS011;66908;50.988;4.780;2023-02-19T09:31:41;9.38;;;3.83;;
55835;SDS011;66908;50.988;4.780;2023-02-19T09:34:07;10.65;;;5.05;;
55835;SDS011;66908;50.988;4.780;2023-02-19T09:36:33;16.52;;;5.13;;
55835;SDS011;66908;50.988;4.780;2023-02-19T09:38:59;13.13;;;4.20;;
55835;SDS011;66908;50.988;4.780;2023-02-19T09:41:33;11.32;;;3.92;;
55835;SDS011;66908;50.988;4.780;2023-02-19T09:44:02;7.93;;;3.97;;
55835;SDS011;66908;50.988;4.780;2023-02-19T09:46:49;14.75;;;4.07;;
55835;SDS011;66908;50.988;4.780;2023-02-19T09:54:48;9.02;;;4.03;;
55835;SDS011;66908;50.988;4.780;2023-02-19T09:57:16;11.45;;;4.25;;
55835;SDS011;66908;50.988;4.780;2023-02-19T09:59:51;13.68;;;4.32;;
55835;SDS011;66908;50.988;4.780;2023-02-19T10:02:35;16.35;;;5.05;;
55835;SDS011;66908;50.988;4.780;2023-02-19T10:05:01;7.57;;;3.88;;
55835;SDS011;66908;50.988;4.780;2023-02-19T10:07:39;13.33;;;4.10;;
55835;SDS011;66908;50.988;4.780;2023-02-19T10:10:17;6.90;;;3.75;;
55835;SDS011;66908;50.988;4.780;2023-02-19T10:12:51;10.52;;;4.43;;
55835;SDS011;66908;50.988;4.780;2023-02-19T10:18:15;12.80;;;4.43;;
55835;SDS011;66908;50.988;4.780;2023-02-19T10:20:43;12.05;;;5.28;;
55835;SDS011;66908;50.988;4.780;2023-02-19T10:23:10;10.30;;;5.53;;
55835;SDS011;66908;50.988;4.780;2023-02-19T10:25:41;12.48;;;5.20;;
55835;SDS011;66908;50.988;4.780;2023-02-19T10:28:14;16.38;;;5.53;;
55835;SDS011;66908;50.988;4.780;2023-02-19T10:30:43;9.18;;;5.50;;
55835;SDS011;66908;50.988;4.780;2023-02-19T10:33:13;14.48;;;4.45;;
55835;SDS011;66908;50.988;4.780;2023-02-19T10:35:50;12.63;;;4.93;;
55835;SDS011;66908;50.988;4.780;2023-02-19T10:38:24;10.40;;;5.00;;
55835;SDS011;66908;50.988;4.780;2023-02-19T10:41:20;9.15;;;5.10;;
55835;SDS011;66908;50.988;4.780;2023-02-19T10:46:23;17.13;;;7.07;;
55835;SDS011;66908;50.988;4.780;2023-02-19T10:49:02;16.70;;;7.57;;
55835;SDS011;66908;50.988;4.780;2023-02-19T10:51:33;20.05;;;10.23;;
55835;SDS011;66908;50.988;4.780;2023-02-19T10:54:26;11.63;;;5.82;;
55835;SDS011;66908;50.988;4.780;2023-02-19T10:57:01;14.07;;;5.25;;
55835;SDS011;66908;50.988;4.780;2023-02-19T10:59:53;8.25;;;4.50;;
55835;SDS011;66908;50.988;4.780;2023-02-19T11:02:25;14.25;;;6.22;;
55835;SDS011;66908;50.988;4.780;2023-02-19T11:07:36;11.43;;;5.10;;
55835;SDS011;66908;50.988;4.780;2023-02-19T11:10:17;8.73;;;4.65;;
55835;SDS011;66908;50.988;4.780;2023-02-19T11:13:02;10.98;;;5.57;;
55835;SDS011;66908;50.988;4.780;2023-02-19T11:17:59;17.77;;;8.23;;
55835;SDS011;66908;50.988;4.780;2023-02-19T11:20:50;15.02;;;7.97;;
55835;SDS011;66908;50.988;4.780;2023-02-19T11:26:21;11.73;;;7.03;;
55835;SDS011;66908;50.988;4.780;2023-02-19T11:28:56;14.65;;;8.32;;
55835;SDS011;66908;50.988;4.780;2023-02-19T11:31:35;14.15;;;7.88;;
55835;SDS011;66908;50.988;4.780;2023-02-19T11:34:02;12.30;;;7.35;;
55835;SDS011;66908;50.988;4.780;2023-02-19T11:37:06;13.13;;;6.68;;
55835;SDS011;66908;50.988;4.780;2023-02-19T11:39:34;10.35;;;6.82;;
55835;SDS011;66908;50.988;4.780;2023-02-19T11:50:24;10.85;;;5.60;;
55835;SDS011;66908;50.988;4.780;2023-02-19T11:53:05;13.55;;;6.43;;
55835;SDS011;66908;50.988;4.780;2023-02-19T11:56:08;13.40;;;5.95;;
55835;SDS011;66908;50.988;4.780;2023-02-19T11:58:44;13.77;;;5.22;;
55835;SDS011;66908;50.988;4.780;2023-02-19T12:04:23;7.53;;;5.28;;
55835;SDS011;66908;50.988;4.780;2023-02-19T12:12:30;12.60;;;7.43;;
55835;SDS011;66908;50.988;4.780;2023-02-19T12:15:01;14.13;;;8.65;;
55835;SDS011;66908;50.988;4.780;2023-02-19T12:20:25;15.45;;;8.25;;
55835;SDS011;66908;50.988;4.780;2023-02-19T12:26:23;14.55;;;9.10;;
55835;SDS011;66908;50.988;4.780;2023-02-19T12:37:31;18.80;;;8.23;;
55835;SDS011;66908;50.988;4.780;2023-02-19T12:40:31;13.32;;;8.38;;
55835;SDS011;66908;50.988;4.780;2023-02-19T12:43:20;10.98;;;7.35;;
55835;SDS011;66908;50.988;4.780;2023-02-19T12:56:33;12.05;;;7.10;;
55835;SDS011;66908;50.988;4.780;2023-02-19T13:01:35;13.25;;;8.45;;
55835;SDS011;66908;50.988;4.780;2023-02-19T13:04:13;14.38;;;7.65;;
55835;SDS011;66908;50.988;4.780;2023-02-19T13:06:51;10.52;;;6.65;;
55835;SDS011;66908;50.988;4.780;2023-02-19T13:09:27;11.55;;;6.82;;
55835;SDS011;66908;50.988;4.780;2023-02-19T13:12:04;14.82;;;7.57;;
55835;SDS011;66908;50.988;4.780;2023-02-19T13:14:38;14.38;;;7.40;;
55835;SDS011;66908;50.988;4.780;2023-02-19T13:17:25;10.75;;;6.82;;
55835;SDS011;66908;50.988;4.780;2023-02-19T13:19:56;10.25;;;6.45;;
55835;SDS011;66908;50.988;4.780;2023-02-19T13:26:04;12.05;;;7.10;;
55835;SDS011;66908;50.988;4.780;2023-02-19T13:37:04;15.40;;;8.80;;
55835;SDS011;66908;50.988;4.780;2023-02-19T13:39:30;11.48;;;7.32;;
55835;SDS011;66908;50.988;4.780;2023-02-19T13:41:57;15.63;;;8.20;;
55835;SDS011;66908;50.988;4.780;2023-02-19T13:44:30;11.73;;;7.88;;
55835;SDS011;66908;50.988;4.780;2023-02-19T13:47:05;12.75;;;7.85;;
55835;SDS011;66908;50.988;4.780;2023-02-19T13:50:22;11.75;;;8.20;;
55835;SDS011;66908;50.988;4.780;2023-02-19T13:52:50;11.48;;;7.85;;
55835;SDS011;66908;50.988;4.780;2023-02-19T14:01:07;14.82;;;8.60;;
55835;SDS011;66908;50.988;4.780;2023-02-19T14:06:12;21.20;;;15.27;;
55835;SDS011;66908;50.988;4.780;2023-02-19T14:08:52;11.45;;;6.70;;
55835;SDS011;66908;50.988;4.780;2023-02-19T14:17:21;8.70;;;6.15;;
55835;SDS011;66908;50.988;4.780;2023-02-19T14:27:49;11.27;;;6.20;;
55835;SDS011;66908;50.988;4.780;2023-02-19T14:30:17;9.65;;;5.50;;
55835;SDS011;66908;50.988;4.780;2023-02-19T14:32:45;9.85;;;5.22;;
55835;SDS011;66908;50.988;4.780;2023-02-19T14:35:18;12.80;;;7.00;;
55835;SDS011;66908;50.988;4.780;2023-02-19T14:37:45;6.78;;;5.20;;
55835;SDS011;66908;50.988;4.780;2023-02-19T14:40:17;6.43;;;4.00;;
55835;SDS011;66908;50.988;4.780;2023-02-19T14:42:48;4.40;;;3.97;;
55835;SDS011;66908;50.988;4.780;2023-02-19T14:45:17;4.63;;;3.80;;
55835;SDS011;66908;50.988;4.780;2023-02-19T14:47:44;6.60;;;4.43;;
55835;SDS011;66908;50.988;4.780;2023-02-19T14:50:30;8.75;;;4.55;;
55835;SDS011;66908;50.988;4.780;2023-02-19T14:52:58;5.72;;;5.13;;
55835;SDS011;66908;50.988;4.780;2023-02-19T14:58:12;6.68;;;4.35;;
55835;SDS011;66908;50.988;4.780;2023-02-19T15:00:43;5.20;;;3.97;;
55835;SDS011;66908;50.988;4.780;2023-02-19T15:06:06;5.15;;;4.03;;
55835;SDS011;66908;50.988;4.780;2023-02-19T15:08:37;4.75;;;4.18;;
55835;SDS011;66908;50.988;4.780;2023-02-19T15:11:08;10.82;;;5.93;;
55835;SDS011;66908;50.988;4.780;2023-02-19T15:13:39;6.68;;;4.30;;
55835;SDS011;66908;50.988;4.780;2023-02-19T15:16:10;6.28;;;5.35;;
55835;SDS011;66908;50.988;4.780;2023-02-19T15:18:44;4.28;;;3.80;;
55835;SDS011;66908;50.988;4.780;2023-02-19T15:23:58;7.10;;;4.60;;
55835;SDS011;66908;50.988;4.780;2023-02-19T15:26:36;8.27;;;5.50;;
55835;SDS011;66908;50.988;4.780;2023-02-19T15:29:11;5.25;;;4.68;;
55835;SDS011;66908;50.988;4.780;2023-02-19T15:34:19;7.45;;;4.45;;
55835;SDS011;66908;50.988;4.780;2023-02-19T15:36:47;11.80;;;4.63;;
55835;SDS011;66908;50.988;4.780;2023-02-19T15:39:16;7.03;;;4.25;;
55835;SDS011;66908;50.988;4.780;2023-02-19T15:41:52;5.32;;;3.80;;
55835;SDS011;66908;50.988;4.780;2023-02-19T15:44:31;3.30;;;3.00;;
55835;SDS011;66908;50.988;4.780;2023-02-19T15:47:04;35.92;;;16.40;;
55835;SDS011;66908;50.988;4.780;2023-02-19T15:49:45;4.03;;;3.30;;
55835;SDS011;66908;50.988;4.780;2023-02-19T15:52:46;6.00;;;3.63;;
55835;SDS011;66908;50.988;4.780;2023-02-19T15:58:04;8.10;;;4.85;;
55835;SDS011;66908;50.988;4.780;2023-02-19T16:03:24;4.55;;;3.47;;
55835;SDS011;66908;50.988;4.780;2023-02-19T16:08:35;4.93;;;3.17;;
55835;SDS011;66908;50.988;4.780;2023-02-19T16:11:06;7.18;;;3.30;;
55835;SDS011;66908;50.988;4.780;2023-02-19T16:13:47;4.80;;;3.50;;
55835;SDS011;66908;50.988;4.780;2023-02-19T16:16:25;4.45;;;3.85;;
55835;SDS011;66908;50.988;4.780;2023-02-19T16:18:55;4.22;;;3.83;;
55835;SDS011;66908;50.988;4.780;2023-02-19T16:21:22;6.10;;;4.20;;
55835;SDS011;66908;50.988;4.780;2023-02-19T16:24:02;5.63;;;4.10;;
55835;SDS011;66908;50.988;4.780;2023-02-19T16:26:39;5.28;;;3.50;;
55835;SDS011;66908;50.988;4.780;2023-02-19T16:31:56;4.30;;;3.47;;
55835;SDS011;66908;50.988;4.780;2023-02-19T16:34:40;3.30;;;3.05;;
55835;SDS011;66908;50.988;4.780;2023-02-19T16:42:39;5.13;;;3.05;;
55835;SDS011;66908;50.988;4.780;2023-02-19T16:45:31;2.95;;;2.75;;
55835;SDS011;66908;50.988;4.780;2023-02-19T16:47:57;8.88;;;3.83;;
55835;SDS011;66908;50.988;4.780;2023-02-19T16:50:23;3.58;;;3.00;;
55835;SDS011;66908;50.988;4.780;2023-02-19T16:55:21;3.42;;;3.13;;
55835;SDS011;66908;50.988;4.780;2023-02-19T16:57:47;5.38;;;3.20;;
55835;SDS011;66908;50.988;4.780;2023-02-19T17:00:14;5.80;;;4.18;;
55835;SDS011;66908;50.988;4.780;2023-02-19T17:02:42;5.45;;;4.93;;
55835;SDS011;66908;50.988;4.780;2023-02-19T17:05:10;4.53;;;3.55;;
55835;SDS011;66908;50.988;4.780;2023-02-19T17:07:35;4.00;;;3.63;;
55835;SDS011;66908;50.988;4.780;2023-02-19T17:10:02;9.77;;;6.57;;
55835;SDS011;66908;50.988;4.780;2023-02-19T17:12:28;4.60;;;3.63;;
55835;SDS011;66908;50.988;4.780;2023-02-19T17:14:54;4.25;;;3.75;;
55835;SDS011;66908;50.988;4.780;2023-02-19T17:17:20;4.03;;;3.08;;
55835;SDS011;66908;50.988;4.780;2023-02-19T17:19:46;3.65;;;3.35;;
55835;SDS011;66908;50.988;4.780;2023-02-19T17:22:12;5.03;;;3.47;;
55835;SDS011;66908;50.988;4.780;2023-02-19T17:24:41;5.72;;;4.65;;
55835;SDS011;66908;50.988;4.780;2023-02-19T17:27:11;4.35;;;3.88;;
55835;SDS011;66908;50.988;4.780;2023-02-19T17:29:38;5.75;;;4.28;;
55835;SDS011;66908;50.988;4.780;2023-02-19T17:32:04;4.50;;;3.83;;
55835;SDS011;66908;50.988;4.780;2023-02-19T17:34:30;5.95;;;4.07;;
55835;SDS011;66908;50.988;4.780;2023-02-19T17:36:56;4.68;;;3.95;;
55835;SDS011;66908;50.988;4.780;2023-02-19T17:39:22;5.15;;;4.30;;
55835;SDS011;66908;50.988;4.780;2023-02-19T17:41:49;6.00;;;4.07;;
55835;SDS011;66908;50.988;4.780;2023-02-19T17:44:15;6.90;;;4.30;;
55835;SDS011;66908;50.988;4.780;2023-02-19T17:46:41;6.60;;;5.05;;
55835;SDS011;66908;50.988;4.780;2023-02-19T17:49:09;4.53;;;4.13;;
55835;SDS011;66908;50.988;4.780;2023-02-19T17:51:37;4.90;;;4.10;;